首页
METAR-TAF:

METAR-TAF

机场 :

埃森博阿国际机场

安卡拉埃森博阿, 土耳其

纬度: 40-07N, 经度: 032-59E, 海拔: 953米

当前天气观测

该预报发布于22分钟前的06:50 UTC
风速1节,风向多变
温度 2°C
湿度 69%
气压 1025 hPa
能見度: 6000

METAR: LTAC 200650Z VRB01KT 6000 NSC 02/M03 Q1025 NOSIG RMK RWY21L 00000KT RWY03L 00000KT RWY21R 00000KT

时间: 10:12 (07:12 UTC)

预报

该预报发布于2小时和32分钟前的04:40 UTC
预报有效从20日的 06点(UTC)到 21日的 06点(UTC)
风速2节,风向多变
能见度10公里或以上
1500米以下无云,无积雨云
成为
从 20日的 06点(UTC)到 20日的 09点(UTC)
少量云层高于4000英尺
成为
从 20日的 13点(UTC)到 20日的 15点(UTC)
能见度10公里或以上
1500米以下无云,无积雨云

TAF: LTAC 200440Z 2006/2106 VRB02KT CAVOK BECMG 2006/2009 FEW040 BECMG 2013/2015 CAVOK

超过4000个机场的气象观测和天气预报(METAR&TAF报告)。

可查询的气象台以黄色和红色小点在地图上表示。

将鼠标移到小点上方,可查看气象台名称。

然后点击查看天气观测和预报。

如需切换地图:点击带黑十字的绿色按钮放大地图;点击带横线的绿色按钮缩小地图;或者点击绿色箭头查看邻近地区的地图。


METAR-TAF: